createdAt,value
2019-05-03T00:02:19.355Z,100.00
2019-05-03T00:04:51.607Z,100.00
2019-05-03T00:07:20.049Z,100.00
2019-05-03T00:09:48.537Z,100.00
2019-05-03T00:12:16.995Z,100.00
2019-05-03T00:14:47.140Z,100.00
2019-05-03T00:17:15.709Z,100.00
2019-05-03T00:19:44.187Z,100.00
2019-05-03T00:22:12.602Z,100.00
2019-05-03T00:24:42.703Z,100.00
2019-05-03T00:27:12.526Z,100.00
2019-05-03T00:29:41.784Z,100.00
2019-05-03T00:32:12.293Z,100.00
2019-05-03T00:34:42.166Z,100.00
2019-05-03T00:37:18.635Z,100.00
2019-05-03T00:39:48.667Z,100.00
2019-05-03T00:42:17.080Z,100.00
2019-05-03T00:44:45.499Z,100.00
2019-05-03T00:47:13.895Z,100.00
2019-05-03T00:49:42.653Z,100.00
2019-05-03T00:52:11.674Z,100.00
2019-05-03T00:54:42.228Z,100.00
2019-05-03T00:57:12.002Z,100.00
2019-05-03T00:59:42.020Z,100.00
2019-05-03T01:02:11.846Z,100.00
2019-05-03T01:04:40.400Z,100.00
2019-05-03T01:07:08.829Z,100.00
2019-05-03T01:09:37.402Z,100.00
2019-05-03T01:12:05.818Z,100.00
2019-05-03T01:14:35.701Z,100.00
2019-05-03T01:17:04.478Z,100.00
2019-05-03T01:19:33.432Z,100.00
2019-05-03T01:22:02.060Z,100.00
2019-05-03T01:24:32.276Z,100.00
2019-05-03T01:27:01.955Z,100.00
2019-05-03T01:29:32.251Z,100.00
2019-05-03T01:32:02.352Z,100.00
2019-05-03T01:34:32.627Z,100.00
2019-05-03T01:37:02.587Z,100.00
2019-05-03T01:39:31.608Z,100.00
2019-05-03T01:42:00.156Z,100.00
2019-05-03T01:44:28.688Z,100.00
2019-05-03T01:46:58.732Z,100.00
2019-05-03T01:49:34.570Z,100.00
2019-05-03T01:52:04.977Z,100.00
2019-05-03T01:54:33.391Z,100.00
2019-05-03T01:57:02.446Z,100.00
2019-05-03T01:59:32.011Z,100.00
2019-05-03T02:02:20.206Z,100.00
2019-05-03T02:04:53.357Z,100.00
2019-05-03T02:07:22.395Z,100.00
2019-05-03T02:09:51.988Z,100.00
2019-05-03T02:12:22.191Z,100.00
2019-05-03T02:14:51.692Z,100.00
2019-05-03T02:17:20.220Z,100.00
2019-05-03T02:19:48.679Z,100.00
2019-05-03T02:22:17.095Z,100.00
2019-05-03T02:24:45.516Z,100.00
2019-05-03T02:27:13.940Z,100.00
2019-05-03T02:29:42.499Z,100.00
2019-05-03T02:32:13.220Z,100.00
2019-05-03T02:34:43.963Z,100.00
2019-05-03T02:37:13.886Z,100.00
2019-05-03T02:39:42.751Z,100.00
2019-05-03T02:42:11.998Z,100.00
2019-05-03T02:44:40.735Z,100.00
2019-05-03T02:47:16.991Z,100.00
2019-05-03T02:49:47.062Z,100.00
2019-05-03T02:52:36.717Z,100.00
2019-05-03T02:55:07.053Z,100.00
2019-05-03T02:57:35.622Z,100.00
2019-05-03T03:00:10.091Z,100.00
2019-05-03T03:02:39.705Z,100.00
2019-05-03T03:05:09.675Z,100.00
2019-05-03T03:07:39.317Z,100.00
2019-05-03T03:10:08.156Z,100.00
2019-05-03T03:12:38.638Z,100.00
2019-05-03T03:15:07.974Z,100.00
2019-05-03T03:17:36.632Z,100.00
2019-05-03T03:20:07.533Z,100.00
2019-05-03T03:22:39.004Z,100.00
2019-05-03T03:25:09.523Z,100.00
2019-05-03T03:27:40.282Z,100.00
2019-05-03T03:30:38.189Z,100.00
2019-05-03T03:33:09.487Z,100.00
2019-05-03T03:35:39.603Z,100.00
2019-05-03T03:38:08.304Z,100.00
2019-05-03T03:40:38.682Z,100.00
2019-05-03T03:43:09.339Z,100.00
2019-05-03T03:45:39.713Z,100.00
2019-05-03T03:48:10.371Z,100.00
2019-05-03T03:50:41.959Z,100.00
2019-05-03T03:53:12.144Z,100.00
2019-05-03T03:55:45.608Z,100.00
2019-05-03T03:58:21.286Z,100.00
2019-05-03T04:00:46.224Z,98.29
2019-05-03T04:03:15.775Z,96.96
2019-05-03T04:05:46.803Z,94.74
2019-05-03T04:08:16.161Z,95.27
2019-05-03T04:10:46.386Z,91.20
2019-05-03T04:13:16.129Z,90.13
2019-05-03T04:15:56.135Z,89.77
2019-05-03T04:18:26.436Z,88.90
2019-05-03T04:20:55.934Z,87.37
2019-05-03T04:23:26.369Z,87.33
2019-05-03T04:25:56.687Z,86.17
2019-05-03T04:28:25.646Z,85.61
2019-05-03T04:30:55.362Z,85.25
2019-05-03T04:33:26.589Z,85.25
2019-05-03T04:35:55.698Z,85.16
2019-05-03T04:38:25.721Z,85.49
2019-05-03T04:40:56.228Z,85.52
2019-05-03T04:43:26.446Z,86.51
2019-05-03T04:46:02.161Z,85.27
2019-05-03T04:48:31.134Z,85.28
2019-05-03T04:50:59.560Z,85.56
2019-05-03T04:53:28.646Z,86.30
2019-05-03T04:55:57.041Z,85.29
2019-05-03T04:58:25.926Z,85.81
2019-05-03T05:03:36.087Z,86.19
2019-05-03T05:06:06.262Z,86.30
2019-05-03T05:08:35.815Z,87.05
2019-05-03T05:11:05.846Z,87.77
2019-05-03T05:13:35.577Z,88.24
2019-05-03T05:16:05.973Z,87.88
2019-05-03T05:18:36.318Z,88.26
2019-05-03T05:21:06.426Z,88.67
2019-05-03T05:23:35.434Z,88.67
2019-05-03T05:26:14.443Z,88.89
2019-05-03T05:28:44.846Z,88.54
2019-05-03T05:31:15.122Z,88.65
2019-05-03T05:33:44.622Z,88.45
2019-05-03T05:36:15.150Z,88.35
2019-05-03T05:38:45.038Z,87.92
2019-05-03T05:41:15.473Z,87.46
2019-05-03T05:43:44.683Z,86.56
2019-05-03T05:46:14.634Z,87.99
2019-05-03T05:48:45.295Z,89.28
2019-05-03T05:51:15.991Z,86.98
2019-05-03T05:53:44.751Z,89.27
2019-05-03T05:56:15.772Z,87.88
2019-05-03T05:58:45.841Z,86.76
2019-05-03T06:01:31.847Z,86.76
2019-05-03T06:04:00.241Z,84.69
2019-05-03T06:06:30.387Z,83.14
2019-05-03T06:09:04.985Z,83.14
2019-05-03T06:11:40.680Z,78.17
2019-05-03T06:14:10.778Z,78.17
2019-05-03T06:16:52.884Z,78.49
2019-05-03T06:19:23.056Z,78.03
2019-05-03T06:21:55.895Z,75.79
2019-05-03T06:24:37.451Z,75.94
2019-05-03T06:27:10.171Z,73.70
2019-05-03T06:29:38.756Z,73.25
2019-05-03T06:32:20.599Z,73.13
2019-05-03T06:34:49.174Z,72.04
2019-05-03T06:37:19.215Z,69.08
2019-05-03T06:39:47.727Z,69.76
2019-05-03T06:42:19.300Z,68.03
2019-05-03T06:44:46.315Z,67.91
2019-05-03T06:47:14.964Z,65.54
2019-05-03T06:49:44.887Z,65.22
2019-05-03T06:52:14.727Z,64.09
2019-05-03T06:54:44.973Z,62.66
2019-05-03T06:57:15.098Z,60.92
2019-05-03T06:59:45.303Z,58.55
2019-05-03T07:02:28.659Z,55.49
2019-05-03T07:04:58.772Z,55.60
2019-05-03T07:07:28.885Z,55.43
2019-05-03T07:10:01.630Z,56.74
2019-05-03T07:12:31.678Z,55.88
2019-05-03T07:15:00.073Z,55.91
2019-05-03T07:17:28.486Z,56.06
2019-05-03T07:19:56.887Z,55.62
2019-05-03T07:22:25.399Z,55.48
2019-05-03T07:24:54.651Z,55.70
2019-05-03T07:27:24.756Z,56.80
2019-05-03T07:29:55.462Z,56.50
2019-05-03T07:32:24.712Z,55.05
2019-05-03T07:34:55.457Z,55.69
2019-05-03T07:37:24.550Z,57.79
2019-05-03T07:39:53.083Z,58.10
2019-05-03T07:42:21.491Z,59.19
2019-05-03T07:44:49.922Z,58.19
2019-05-03T07:47:18.645Z,57.42
2019-05-03T07:49:47.047Z,58.39
2019-05-03T07:52:15.458Z,58.45
2019-05-03T07:54:45.168Z,57.56
2019-05-03T07:57:25.436Z,59.94
2019-05-03T07:59:55.669Z,59.23
2019-05-03T08:02:27.109Z,59.78
2019-05-03T08:04:54.875Z,59.20
2019-05-03T08:07:25.519Z,59.63
2019-05-03T08:09:55.452Z,59.53
2019-05-03T08:12:24.672Z,61.54
2019-05-03T08:14:55.204Z,55.47
2019-05-03T08:17:25.351Z,55.29
2019-05-03T08:19:55.221Z,55.02
2019-05-03T08:22:25.551Z,52.83
2019-05-03T08:24:55.516Z,49.96
2019-05-03T08:27:25.158Z,49.75
2019-05-03T08:29:55.558Z,49.31
2019-05-03T08:32:35.279Z,49.18
2019-05-03T08:35:11.682Z,50.83
2019-05-03T08:37:54.696Z,47.85
2019-05-03T08:40:24.866Z,46.70
2019-05-03T08:42:54.997Z,43.76
2019-05-03T08:45:25.601Z,41.78
2019-05-03T08:47:55.332Z,46.28
2019-05-03T08:50:25.657Z,45.59
2019-05-03T08:52:55.730Z,44.09
2019-05-03T08:55:24.984Z,46.20
2019-05-03T08:57:55.076Z,49.32
2019-05-03T09:00:25.472Z,50.69
2019-05-03T09:02:55.442Z,50.52
2019-05-03T09:05:25.047Z,49.67
2019-05-03T09:07:54.893Z,49.74
2019-05-03T09:10:31.123Z,49.60
2019-05-03T09:13:10.353Z,48.04
2019-05-03T09:15:40.739Z,48.83
2019-05-03T09:18:09.217Z,47.09
2019-05-03T09:20:37.636Z,46.01
2019-05-03T09:23:06.163Z,45.98
2019-05-03T09:25:35.468Z,46.48
2019-05-03T09:28:04.813Z,46.86
2019-05-03T09:30:35.530Z,47.89
2019-05-03T09:33:06.012Z,47.54
2019-05-03T09:35:36.037Z,47.47
2019-05-03T09:38:05.715Z,47.25
2019-05-03T09:40:35.220Z,47.02
2019-05-03T09:43:04.569Z,46.83
2019-05-03T09:45:35.119Z,48.52
2019-05-03T09:48:05.487Z,48.88
2019-05-03T09:50:35.659Z,50.16
2019-05-03T09:53:05.505Z,50.40
2019-05-03T09:55:38.113Z,48.83
2019-05-03T09:58:06.681Z,49.73
2019-05-03T10:00:35.088Z,45.25
2019-05-03T10:03:05.557Z,45.19
2019-05-03T10:05:35.072Z,45.48
2019-05-03T10:08:05.176Z,44.82
2019-05-03T10:10:35.711Z,43.47
2019-05-03T10:13:13.331Z,41.73
2019-05-03T10:15:38.968Z,40.88
2019-05-03T10:18:11.039Z,41.34
2019-05-03T10:20:38.883Z,39.25
2019-05-03T10:23:12.032Z,39.86
2019-05-03T10:25:40.551Z,39.58
2019-05-03T10:28:08.903Z,39.55
2019-05-03T10:30:37.313Z,39.38
2019-05-03T10:33:07.448Z,38.38
2019-05-03T10:35:35.874Z,35.60
2019-05-03T10:38:05.766Z,36.34
2019-05-03T10:40:35.698Z,37.83
2019-05-03T10:43:04.983Z,38.77
2019-05-03T10:45:35.375Z,37.60
2019-05-03T10:48:04.838Z,35.93
2019-05-03T10:50:34.798Z,35.88
2019-05-03T10:53:23.650Z,33.65
2019-05-03T10:56:09.945Z,34.74
2019-05-03T10:58:39.239Z,34.85
2019-05-03T11:01:07.657Z,33.55
2019-05-03T11:03:36.046Z,37.36
2019-05-03T11:06:05.484Z,35.34
2019-05-03T11:08:33.953Z,34.99
2019-05-03T11:11:02.465Z,34.59
2019-05-03T11:13:30.947Z,33.91
2019-05-03T11:15:59.431Z,36.49
2019-05-03T11:18:28.220Z,37.20
2019-05-03T11:20:56.761Z,38.52
2019-05-03T11:23:25.304Z,36.99
2019-05-03T11:25:55.436Z,37.47
2019-05-03T11:28:27.000Z,37.55
2019-05-03T11:31:01.857Z,37.29
2019-05-03T11:33:27.953Z,38.63
2019-05-03T11:35:58.081Z,39.48
2019-05-03T11:38:28.138Z,40.68
2019-05-03T11:40:56.528Z,39.96
2019-05-03T11:43:24.953Z,39.44
2019-05-03T11:45:55.433Z,38.13
2019-05-03T11:48:25.331Z,37.73
2019-05-03T11:50:54.614Z,37.19
2019-05-03T11:53:25.034Z,36.34
2019-05-03T11:55:55.197Z,37.60
2019-05-03T11:58:25.819Z,38.48
2019-05-03T12:01:10.811Z,38.60
2019-05-03T12:03:27.100Z,37.49
2019-05-03T12:05:57.144Z,36.25
2019-05-03T12:08:25.560Z,36.82
2019-05-03T12:10:58.647Z,37.64
2019-05-03T12:13:25.767Z,38.70
2019-05-03T12:15:55.254Z,39.73
2019-05-03T12:18:25.189Z,42.12
2019-05-03T12:20:56.910Z,41.69
2019-05-03T12:23:25.843Z,40.80
2019-05-03T12:25:55.285Z,41.93
2019-05-03T12:28:25.647Z,41.54
2019-05-03T12:30:54.232Z,41.40
2019-05-03T12:33:22.669Z,42.18
2019-05-03T12:35:51.260Z,42.09
2019-05-03T12:38:19.748Z,42.35
2019-05-03T12:40:48.280Z,41.64
2019-05-03T12:43:16.778Z,41.76
2019-05-03T12:45:45.251Z,43.06
2019-05-03T12:48:15.530Z,42.80
2019-05-03T12:50:46.318Z,43.73
2019-05-03T12:53:15.207Z,45.25
2019-05-03T12:55:43.608Z,45.93
2019-05-03T12:58:12.195Z,46.21
2019-05-03T13:00:48.449Z,46.26
2019-05-03T13:03:19.521Z,46.26
2019-05-03T13:05:47.887Z,46.43
2019-05-03T13:08:36.860Z,47.89
2019-05-03T13:11:06.128Z,49.39
2019-05-03T13:13:35.861Z,49.17
2019-05-03T13:16:05.096Z,49.26
2019-05-03T13:18:35.212Z,49.52
2019-05-03T13:21:05.823Z,48.63
2019-05-03T13:23:35.591Z,48.79
2019-05-03T13:26:05.521Z,47.93
2019-05-03T13:28:34.384Z,47.54
2019-05-03T13:31:02.831Z,46.99
2019-05-03T13:33:31.249Z,47.78
2019-05-03T13:35:59.712Z,48.12
2019-05-03T13:38:28.207Z,48.14
2019-05-03T13:40:56.649Z,46.96
2019-05-03T13:43:25.040Z,47.51
2019-05-03T13:45:55.504Z,48.15
2019-05-03T13:48:26.133Z,48.65
2019-05-03T13:50:55.163Z,49.92
2019-05-03T13:53:25.393Z,50.71
2019-05-03T13:55:55.249Z,50.08
2019-05-03T13:58:23.848Z,50.49
2019-05-03T14:00:52.265Z,50.54
2019-05-03T14:03:20.742Z,50.85
2019-05-03T14:05:49.167Z,52.85
2019-05-03T14:08:17.578Z,51.74
2019-05-03T14:10:50.499Z,51.87
2019-05-03T14:13:18.982Z,52.65
2019-05-03T14:15:47.423Z,52.93
2019-05-03T14:18:15.841Z,52.86
2019-05-03T14:20:45.906Z,54.35
2019-05-03T14:23:15.551Z,58.20
2019-05-03T14:25:44.638Z,59.20
2019-05-03T14:28:14.585Z,63.19
2019-05-03T14:30:45.438Z,65.81
2019-05-03T14:33:13.933Z,66.07
2019-05-03T14:35:42.366Z,63.84
2019-05-03T14:38:10.845Z,62.90
2019-05-03T14:40:39.282Z,63.18
2019-05-03T14:43:07.779Z,64.02
2019-05-03T14:45:36.179Z,62.77
2019-05-03T14:48:06.165Z,63.19
2019-05-03T14:50:35.140Z,62.62
2019-05-03T14:53:05.465Z,61.92
2019-05-03T14:55:35.468Z,62.56
2019-05-03T14:58:21.433Z,63.50
2019-05-03T15:00:54.697Z,64.08
2019-05-03T15:03:24.789Z,64.85
2019-05-03T15:05:55.102Z,65.95
2019-05-03T15:08:25.508Z,64.85
2019-05-03T15:10:54.661Z,65.73
2019-05-03T15:13:25.144Z,66.29
2019-05-03T15:15:54.662Z,65.37
2019-05-03T15:18:25.400Z,63.66
2019-05-03T15:20:55.007Z,61.96
2019-05-03T15:23:25.437Z,63.19
2019-05-03T15:25:54.556Z,61.76
2019-05-03T15:28:25.106Z,61.47
2019-05-03T15:30:55.124Z,59.33
2019-05-03T15:33:23.383Z,60.30
2019-05-03T15:35:51.783Z,61.07
2019-05-03T15:38:20.337Z,59.23
2019-05-03T15:40:48.740Z,59.80
2019-05-03T15:43:18.800Z,59.19
2019-05-03T15:45:51.969Z,58.87
2019-05-03T15:48:21.991Z,58.97
2019-05-03T15:50:50.417Z,56.99
2019-05-03T15:53:18.813Z,56.04
2019-05-03T15:55:47.216Z,55.24
2019-05-03T15:58:15.689Z,53.94
2019-05-03T16:00:44.578Z,53.90
2019-05-03T16:03:14.567Z,54.08
2019-05-03T16:05:44.738Z,52.91
2019-05-03T16:08:15.274Z,53.78
2019-05-03T16:10:45.536Z,52.21
2019-05-03T16:13:14.343Z,52.08
2019-05-03T16:15:44.421Z,52.35
2019-05-03T16:18:14.803Z,52.44
2019-05-03T16:20:44.934Z,52.40
2019-05-03T16:23:15.271Z,52.37
2019-05-03T16:25:44.863Z,51.48
2019-05-03T16:28:15.295Z,52.87
2019-05-03T16:30:45.593Z,53.61
2019-05-03T16:33:26.203Z,54.72
2019-05-03T16:35:44.563Z,54.78
2019-05-03T16:38:13.099Z,54.92
2019-05-03T16:40:41.525Z,55.38
2019-05-03T16:43:09.962Z,56.87
2019-05-03T16:45:38.452Z,57.67
2019-05-03T16:48:07.086Z,58.44
2019-05-03T16:50:35.527Z,56.50
2019-05-03T16:53:05.576Z,56.99
2019-05-03T16:55:35.178Z,56.89
2019-05-03T16:58:04.170Z,56.83
2019-05-03T17:00:32.799Z,57.55
2019-05-03T17:03:01.195Z,58.03
2019-05-03T17:05:31.299Z,59.29
2019-05-03T17:08:17.729Z,61.35
2019-05-03T17:10:47.792Z,59.04
2019-05-03T17:13:16.212Z,58.55
2019-05-03T17:15:44.654Z,57.93
2019-05-03T17:18:14.700Z,58.90
2019-05-03T17:20:45.208Z,59.01
2019-05-03T17:23:15.329Z,58.91
2019-05-03T17:25:44.486Z,58.71
2019-05-03T17:28:13.079Z,58.73
2019-05-03T17:30:41.494Z,58.71
2019-05-03T17:33:09.935Z,58.95
2019-05-03T17:35:38.408Z,59.39
2019-05-03T17:38:06.811Z,59.76
2019-05-03T17:40:54.841Z,59.07
2019-05-03T17:43:27.630Z,59.78
2019-05-03T17:45:57.684Z,59.85
2019-05-03T17:48:26.176Z,60.07
2019-05-03T17:50:55.099Z,60.45
2019-05-03T17:53:30.734Z,60.67
2019-05-03T17:56:06.702Z,61.29
2019-05-03T17:58:55.228Z,60.36
2019-05-03T18:01:41.298Z,60.90
2019-05-03T18:04:19.964Z,60.06
2019-05-03T18:06:58.965Z,59.91
2019-05-03T18:09:31.737Z,59.53
2019-05-03T18:12:01.788Z,58.85
2019-05-03T18:14:31.273Z,59.99
2019-05-03T18:16:59.698Z,59.65
2019-05-03T18:19:28.126Z,59.79
2019-05-03T18:21:56.545Z,60.65
2019-05-03T18:24:24.949Z,60.67
2019-05-03T18:26:53.367Z,60.98
2019-05-03T18:29:21.780Z,61.81
2019-05-03T18:31:50.249Z,61.91
2019-05-03T18:34:22.260Z,62.50
2019-05-03T18:36:48.857Z,63.45
2019-05-03T18:39:17.305Z,63.65
2019-05-03T18:41:45.734Z,64.23
2019-05-03T18:44:24.674Z,64.40
2019-05-03T18:47:00.300Z,64.96
2019-05-03T18:49:28.815Z,65.53
2019-05-03T18:51:57.295Z,66.12
2019-05-03T18:54:25.703Z,66.31
2019-05-03T18:56:55.714Z,66.84
2019-05-03T18:59:24.364Z,67.17
2019-05-03T19:01:55.078Z,68.20
2019-05-03T19:04:33.915Z,68.82
2019-05-03T19:07:03.895Z,69.79
2019-05-03T19:09:26.858Z,71.58
2019-05-03T19:12:15.427Z,71.58
2019-05-03T19:14:44.874Z,73.02
2019-05-03T19:17:21.291Z,73.83
2019-05-03T19:20:00.218Z,74.83
2019-05-03T19:22:28.771Z,75.54
2019-05-03T19:24:57.216Z,76.44
2019-05-03T19:27:25.704Z,76.54
2019-05-03T19:29:55.725Z,76.85
2019-05-03T19:32:25.573Z,77.16
2019-05-03T19:34:54.902Z,77.16
2019-05-03T19:37:25.172Z,77.67
2019-05-03T19:39:55.257Z,78.09
2019-05-03T19:42:24.866Z,78.04
2019-05-03T19:44:55.290Z,78.40
2019-05-03T19:47:25.213Z,79.02
2019-05-03T19:49:54.723Z,79.92
2019-05-03T19:52:25.426Z,80.60
2019-05-03T19:54:55.447Z,80.88
2019-05-03T19:57:25.586Z,81.52
2019-05-03T19:59:56.711Z,81.99
2019-05-03T20:03:59.542Z,82.83
2019-05-03T20:06:34.466Z,83.24
2019-05-03T20:09:07.517Z,84.06
2019-05-03T20:11:35.929Z,84.32
2019-05-03T20:14:04.821Z,84.67
2019-05-03T20:16:34.704Z,84.20
2019-05-03T20:19:17.465Z,83.83
2019-05-03T20:21:33.364Z,83.60
2019-05-03T20:24:01.836Z,82.96
2019-05-03T20:26:30.253Z,83.14
2019-05-03T20:28:58.683Z,84.10
2019-05-03T20:31:27.161Z,84.40
2019-05-03T20:33:55.565Z,84.37
2019-05-03T20:36:23.989Z,84.01
2019-05-03T20:38:54.925Z,83.78
2019-05-03T20:41:25.476Z,84.22
2019-05-03T20:44:14.398Z,84.11
2019-05-03T20:46:44.514Z,84.34
2019-05-03T20:49:14.982Z,84.60
2019-05-03T20:51:45.055Z,84.33
2019-05-03T20:54:15.270Z,85.21
2019-05-03T20:56:45.611Z,85.34
2019-05-03T20:59:14.770Z,85.49
2019-05-03T21:01:45.170Z,85.70
2019-05-03T21:04:15.330Z,85.73
2019-05-03T21:06:45.461Z,85.66
2019-05-03T21:09:14.823Z,85.77
2019-05-03T21:11:44.763Z,85.95
2019-05-03T21:14:15.517Z,85.78
2019-05-03T21:16:51.057Z,86.59
2019-05-03T21:19:29.981Z,86.95
2019-05-03T21:22:03.101Z,87.35
2019-05-03T21:24:41.863Z,87.23
2019-05-03T21:27:10.245Z,87.58
2019-05-03T21:29:45.668Z,87.62
2019-05-03T21:32:14.905Z,87.57
2019-05-03T21:34:45.062Z,88.20
2019-05-03T21:37:15.154Z,88.43
2019-05-03T21:39:45.367Z,88.77
2019-05-03T21:42:15.200Z,88.95
2019-05-03T21:44:44.822Z,88.85
2019-05-03T21:47:17.645Z,88.62
2019-05-03T21:49:46.854Z,88.97
2019-05-03T21:52:15.249Z,88.50
2019-05-03T21:54:45.100Z,88.74
2019-05-03T21:57:14.260Z,88.73
2019-05-03T21:59:44.772Z,88.80
2019-05-03T22:02:15.273Z,89.12
2019-05-03T22:04:44.443Z,89.82
2019-05-03T22:07:12.908Z,90.05
2019-05-03T22:09:41.391Z,90.61
2019-05-03T22:12:09.779Z,91.87
2019-05-03T22:14:39.863Z,92.34
2019-05-03T22:17:09.898Z,92.09
2019-05-03T22:19:38.301Z,91.66
2019-05-03T22:22:25.570Z,91.46
2019-05-03T22:24:56.210Z,91.06
2019-05-03T22:27:25.292Z,90.31
2019-05-03T22:29:54.595Z,91.76
2019-05-03T22:32:24.503Z,92.05
2019-05-03T22:34:53.219Z,92.77
2019-05-03T22:37:21.615Z,93.10
2019-05-03T22:39:50.170Z,93.08
2019-05-03T22:42:18.660Z,93.38
2019-05-03T22:44:47.048Z,93.42
2019-05-03T22:47:15.517Z,93.69
2019-05-03T22:49:45.609Z,93.79
2019-05-03T22:52:15.393Z,93.79
2019-05-03T22:54:45.149Z,94.49
2019-05-03T22:57:15.320Z,94.42
2019-05-03T22:59:44.916Z,94.66
2019-05-03T23:02:16.851Z,95.24
2019-05-03T23:04:44.781Z,95.65
2019-05-03T23:07:14.861Z,95.62
2019-05-03T23:09:44.675Z,94.96
2019-05-03T23:12:13.215Z,94.46
2019-05-03T23:14:41.611Z,94.33
2019-05-03T23:17:10.007Z,94.06
2019-05-03T23:19:40.040Z,93.18
2019-05-03T23:22:21.890Z,92.96
2019-05-03T23:24:50.297Z,93.09
2019-05-03T23:27:18.712Z,93.07
2019-05-03T23:29:47.090Z,92.97
2019-05-03T23:32:15.698Z,93.35
2019-05-03T23:34:46.264Z,93.59
2019-05-03T23:37:14.743Z,94.10
2019-05-03T23:39:44.596Z,94.88
2019-05-03T23:42:15.342Z,94.80
2019-05-03T23:44:45.464Z,94.74
2019-05-03T23:47:15.278Z,95.09
2019-05-03T23:49:44.605Z,94.94
2019-05-03T23:52:14.957Z,94.54
2019-05-03T23:54:43.308Z,94.27
2019-05-03T23:57:11.753Z,94.01
2019-05-03T23:59:40.159Z,93.91
